createdAt,value
2018-07-11T00:00:14.820Z,101038.46
2018-07-11T00:02:41.525Z,101031.80
2018-07-11T00:05:08.173Z,101037.19
2018-07-11T00:07:34.814Z,101029.23
2018-07-11T00:10:03.478Z,101026.52
2018-07-11T00:12:30.156Z,101016.39
2018-07-11T00:14:56.830Z,101017.69
2018-07-11T00:17:23.526Z,101013.25
2018-07-11T00:19:50.203Z,101011.23
2018-07-11T00:22:16.877Z,101009.27
2018-07-11T00:24:43.536Z,101012.01
2018-07-11T00:27:10.230Z,100999.37
2018-07-11T00:29:36.918Z,100984.37
2018-07-11T00:32:04.608Z,100975.00
2018-07-11T00:34:32.205Z,100975.72
2018-07-11T00:36:58.962Z,100973.52
2018-07-11T00:39:25.605Z,100978.23
2018-07-11T00:41:52.378Z,100978.72
2018-07-11T00:44:19.069Z,100964.16
2018-07-11T00:46:45.758Z,100954.32
2018-07-11T00:49:12.417Z,100946.64
2018-07-11T00:51:39.069Z,100947.77
2018-07-11T00:54:06.063Z,100937.61
2018-07-11T00:56:33.787Z,100942.45
2018-07-11T00:59:03.698Z,100941.74
2018-07-11T01:01:30.358Z,100947.28
2018-07-11T01:03:57.053Z,100946.70
2018-07-11T01:06:23.745Z,100948.52
2018-07-11T01:08:52.345Z,100951.70
2018-07-11T01:11:19.018Z,100952.91
2018-07-11T01:13:46.813Z,100957.09
2018-07-11T01:18:42.357Z,100961.47
2018-07-11T01:21:09.800Z,100960.20
2018-07-11T01:23:36.440Z,100950.60
2018-07-11T01:26:04.200Z,100940.13
2018-07-11T01:28:31.517Z,100940.62
2018-07-11T01:33:24.469Z,100933.70
2018-07-11T01:35:51.116Z,100933.58
2018-07-11T01:38:17.769Z,100944.66
2018-07-11T01:40:44.422Z,100948.38
2018-07-11T01:43:11.085Z,100946.70
2018-07-11T01:45:37.753Z,100945.93
2018-07-11T01:48:04.453Z,100948.70
2018-07-11T01:50:32.316Z,100941.23
2018-07-11T01:52:59.714Z,100952.08
2018-07-11T01:55:27.078Z,100956.77
2018-07-11T01:57:57.911Z,100955.13
2018-07-11T02:00:25.093Z,100956.59
2018-07-11T02:02:51.760Z,100958.39
2018-07-11T02:05:19.320Z,100951.35
2018-07-11T02:07:45.961Z,100948.01
2018-07-11T02:10:12.621Z,100950.44
2018-07-11T02:12:39.388Z,100950.52
2018-07-11T02:15:07.720Z,100953.02
2018-07-11T02:17:36.096Z,100951.76
2018-07-11T02:20:04.193Z,100947.95
2018-07-11T02:22:31.840Z,100946.15
2018-07-11T02:24:59.209Z,100943.78
2018-07-11T02:27:25.884Z,100951.03
2018-07-11T02:29:53.507Z,100953.77
2018-07-11T02:32:20.174Z,100951.93
2018-07-11T02:34:46.822Z,100947.60
2018-07-11T02:37:13.464Z,100941.87
2018-07-11T02:39:40.108Z,100947.60
2018-07-11T02:42:06.774Z,100954.02
2018-07-11T02:44:33.925Z,100952.08
2018-07-11T02:49:35.007Z,100948.30
2018-07-11T02:52:03.937Z,100948.61
2018-07-11T02:54:33.381Z,100945.47
2018-07-11T02:57:00.057Z,100942.91
2018-07-11T02:59:27.717Z,100941.55
2018-07-11T03:01:54.378Z,100945.93
2018-07-11T03:04:21.018Z,100946.39
2018-07-11T03:06:47.693Z,100940.62
2018-07-11T03:09:14.352Z,100945.37
2018-07-11T03:11:41.008Z,100942.21
2018-07-11T03:14:07.656Z,100942.36
2018-07-11T03:16:34.753Z,100945.95
2018-07-11T03:19:02.238Z,100946.77
2018-07-11T03:21:28.937Z,100952.92
2018-07-11T03:23:55.596Z,100949.55
2018-07-11T03:26:22.255Z,100959.07
2018-07-11T03:28:49.073Z,100951.58
2018-07-11T03:31:15.725Z,100960.30
2018-07-11T03:33:42.386Z,100957.88
2018-07-11T03:36:10.820Z,100955.99
2018-07-11T03:38:37.477Z,100963.31
2018-07-11T03:41:05.356Z,100965.88
2018-07-11T03:43:35.178Z,100961.22
2018-07-11T03:46:03.747Z,100960.15
2018-07-11T03:48:30.435Z,100964.09
2018-07-11T03:50:58.065Z,100965.97
2018-07-11T03:53:24.743Z,100969.41
2018-07-11T03:55:52.382Z,100969.09
2018-07-11T03:58:19.557Z,100967.08
2018-07-11T04:00:46.413Z,100968.95
2018-07-11T04:03:13.177Z,100964.72
2018-07-11T04:05:39.937Z,100968.31
2018-07-11T04:08:06.665Z,100970.14
2018-07-11T04:10:33.933Z,100968.89
2018-07-11T04:13:02.178Z,100965.90
2018-07-11T04:15:28.858Z,100973.18
2018-07-11T04:17:55.535Z,100976.11
2018-07-11T04:20:23.275Z,100979.60
2018-07-11T04:22:50.845Z,100972.01
2018-07-11T04:25:18.353Z,100976.83
2018-07-11T04:27:45.846Z,100981.38
2018-07-11T04:30:13.888Z,100976.91
2018-07-11T04:32:41.520Z,100978.35
2018-07-11T04:35:08.208Z,100972.84
2018-07-11T04:37:34.870Z,100983.09
2018-07-11T04:40:03.883Z,100981.16
2018-07-11T04:42:30.561Z,100984.23
2018-07-11T04:44:58.216Z,100982.75
2018-07-11T04:47:24.852Z,100986.73
2018-07-11T04:49:51.572Z,100987.57
2018-07-11T04:52:18.360Z,100982.90
2018-07-11T04:54:45.018Z,100981.72
2018-07-11T04:57:11.750Z,100974.86
2018-07-11T04:59:38.439Z,100972.42
2018-07-11T05:02:05.082Z,100967.16
2018-07-11T05:04:34.866Z,100962.76
2018-07-11T05:07:04.113Z,100961.16
2018-07-11T05:09:33.765Z,100959.15
2018-07-11T05:12:00.607Z,100951.94
2018-07-11T05:14:28.298Z,100950.61
2018-07-11T05:16:55.940Z,100945.98
2018-07-11T05:19:22.613Z,100950.46
2018-07-11T05:21:49.273Z,100954.78
2018-07-11T05:24:15.944Z,100953.46
2018-07-11T05:26:43.633Z,100959.27
2018-07-11T05:29:11.187Z,100964.45
2018-07-11T05:31:38.773Z,100966.05
2018-07-11T05:34:06.224Z,100961.08
2018-07-11T05:36:34.212Z,100970.61
2018-07-11T05:39:02.113Z,100965.30
2018-07-11T05:41:29.741Z,100965.33
2018-07-11T05:43:57.988Z,100967.88
2018-07-11T05:46:25.597Z,100962.41
2018-07-11T05:48:53.264Z,100960.17
2018-07-11T05:51:36.001Z,100965.83
2018-07-11T05:54:04.101Z,100966.05
2018-07-11T05:56:32.364Z,100964.45
2018-07-11T05:58:59.057Z,100967.73
2018-07-11T06:01:25.724Z,100972.35
2018-07-11T06:03:53.325Z,100969.39
2018-07-11T06:06:21.025Z,100978.20
2018-07-11T06:08:48.630Z,100977.66
2018-07-11T06:11:17.812Z,100975.77
2018-07-11T06:13:45.479Z,100976.61
2018-07-11T06:16:13.270Z,100983.51
2018-07-11T06:18:39.970Z,100982.67
2018-07-11T06:21:06.713Z,100979.06
2018-07-11T06:23:34.241Z,100986.73
2018-07-11T06:26:00.889Z,100979.11
2018-07-11T06:28:28.585Z,100983.32
2018-07-11T06:30:55.250Z,100980.05
2018-07-11T06:33:21.942Z,100986.89
2018-07-11T06:35:48.601Z,100974.94
2018-07-11T06:38:15.236Z,100979.19
2018-07-11T06:40:41.897Z,100983.66
2018-07-11T06:43:08.562Z,100978.84
2018-07-11T06:45:35.223Z,100974.66
2018-07-11T06:48:01.975Z,100970.69
2018-07-11T06:50:29.492Z,100968.86
2018-07-11T06:52:57.057Z,100970.04
2018-07-11T06:55:23.736Z,100975.58
2018-07-11T06:57:50.405Z,100973.34
2018-07-11T07:00:17.989Z,100974.74
2018-07-11T07:02:44.648Z,100974.02
2018-07-11T07:05:12.298Z,100972.47
2018-07-11T07:07:38.953Z,100970.31
2018-07-11T07:10:05.613Z,100970.04
2018-07-11T07:12:33.633Z,100969.70
2018-07-11T07:15:00.284Z,100967.38
2018-07-11T07:17:26.998Z,100966.05
2018-07-11T07:19:53.695Z,100970.53
2018-07-11T07:22:20.337Z,100971.52
2018-07-11T07:24:46.993Z,100962.83
2018-07-11T07:27:13.654Z,100962.34
2018-07-11T07:29:40.303Z,100962.22
2018-07-11T07:32:06.973Z,100963.73
2018-07-11T07:34:34.404Z,100971.22
2018-07-11T07:37:01.706Z,100970.04
2018-07-11T07:39:28.360Z,100972.35
2018-07-11T07:41:55.980Z,100968.37
2018-07-11T07:44:22.640Z,100971.14
2018-07-11T07:46:55.885Z,100973.19
2018-07-11T07:49:22.565Z,100978.27
2018-07-11T07:51:50.122Z,100976.68
2018-07-11T07:54:17.765Z,100977.66
2018-07-11T07:56:45.374Z,100979.48
2018-07-11T07:59:12.873Z,100973.34
2018-07-11T08:01:39.517Z,100968.86
2018-07-11T08:04:06.954Z,100975.99
2018-07-11T08:06:34.520Z,100971.52
2018-07-11T08:09:03.309Z,100962.34
2018-07-11T08:11:29.948Z,100957.17
2018-07-11T08:13:56.615Z,100958.58
2018-07-11T08:16:23.252Z,100956.69
2018-07-11T08:18:49.901Z,100955.58
2018-07-11T08:21:17.428Z,100959.49
2018-07-11T08:23:49.939Z,100954.38
2018-07-11T08:26:22.793Z,100960.33
2018-07-11T08:28:55.288Z,100957.44
2018-07-11T08:31:27.342Z,100959.15
2018-07-11T08:34:06.650Z,100962.98
2018-07-11T08:36:40.105Z,100967.58
2018-07-11T08:39:12.536Z,100958.84
2018-07-11T08:41:46.042Z,100964.58
2018-07-11T08:44:21.265Z,100965.41
2018-07-11T08:46:57.577Z,100964.92
2018-07-11T08:49:33.636Z,100963.81
2018-07-11T08:52:12.355Z,100965.78
2018-07-11T08:54:44.900Z,100964.58
2018-07-11T08:57:50.224Z,100967.58
2018-07-11T09:01:28.832Z,100961.64
2018-07-11T09:04:03.852Z,100962.55
2018-07-11T09:06:36.934Z,100968.20
2018-07-11T09:11:14.793Z,100968.97
2018-07-11T09:13:46.404Z,100969.60
2018-07-11T09:18:27.221Z,100963.97
2018-07-11T09:20:59.490Z,100961.59
2018-07-11T09:23:29.837Z,100954.34
2018-07-11T09:25:56.486Z,100953.38
2018-07-11T09:28:23.984Z,100950.53
2018-07-11T09:30:50.645Z,100954.78
2018-07-11T09:33:18.187Z,100956.69
2018-07-11T09:35:44.822Z,100951.52
2018-07-11T09:38:12.317Z,100954.52
2018-07-11T09:40:39.823Z,100953.05
2018-07-11T09:43:07.504Z,100950.05
2018-07-11T09:45:34.207Z,100951.86
2018-07-11T09:48:04.356Z,100954.86
2018-07-11T09:50:31.012Z,100952.70
2018-07-11T09:52:58.537Z,100947.88
2018-07-11T09:55:25.232Z,100946.06
2018-07-11T09:57:52.785Z,100947.54
2018-07-11T10:01:26.699Z,100947.54
2018-07-11T10:03:54.077Z,100946.06
2018-07-11T10:06:20.764Z,100950.64
2018-07-11T10:08:47.437Z,100956.00
2018-07-11T10:11:14.099Z,100955.09
2018-07-11T10:13:40.744Z,100952.13
2018-07-11T10:16:07.394Z,100954.17
2018-07-11T10:18:34.804Z,100949.85
2018-07-11T10:21:02.018Z,100952.20
2018-07-11T10:23:28.688Z,100948.87
2018-07-11T10:25:55.371Z,100952.63
2018-07-11T10:28:22.021Z,100950.20
2018-07-11T10:30:49.136Z,100947.20
2018-07-11T10:33:15.801Z,100936.57
2018-07-11T10:35:42.525Z,100933.20
2018-07-11T10:38:09.925Z,100940.83
2018-07-11T10:40:36.577Z,100939.34
2018-07-11T10:43:03.882Z,100932.09
2018-07-11T10:45:32.140Z,100935.25
2018-07-11T10:47:58.781Z,100920.76
2018-07-11T10:50:26.558Z,100923.07
2018-07-11T10:52:54.384Z,100919.92
2018-07-11T10:55:21.837Z,100917.61
2018-07-11T10:57:49.779Z,100915.78
2018-07-11T11:00:35.972Z,100918.94
2018-07-11T11:02:49.113Z,100924.73
2018-07-11T11:05:15.817Z,100930.70
2018-07-11T11:07:43.435Z,100926.22
2018-07-11T11:10:11.084Z,100925.50
2018-07-11T11:12:39.083Z,100928.53
2018-07-11T11:15:06.299Z,100925.99
2018-07-11T11:17:35.489Z,100922.23
2018-07-11T11:20:04.240Z,100925.16
2018-07-11T11:22:30.881Z,100925.05
2018-07-11T11:24:58.606Z,100929.86
2018-07-11T11:27:26.197Z,100928.16
2018-07-11T11:29:53.858Z,100922.23
2018-07-11T11:32:21.420Z,100920.19
2018-07-11T11:34:49.029Z,100925.05
2018-07-11T11:37:16.611Z,100919.36
2018-07-11T11:39:43.293Z,100919.02
2018-07-11T11:42:11.043Z,100912.45
2018-07-11T11:44:38.321Z,100918.41
2018-07-11T11:47:05.824Z,100912.59
2018-07-11T11:49:34.288Z,100911.27
2018-07-11T11:52:04.129Z,100910.44
2018-07-11T11:54:31.649Z,100910.06
2018-07-11T11:56:58.333Z,100901.27
2018-07-11T11:59:25.826Z,100903.30
2018-07-11T12:01:53.309Z,100906.80
2018-07-11T12:04:19.980Z,100901.14
2018-07-11T12:06:46.637Z,100904.63
2018-07-11T12:09:15.033Z,100901.98
2018-07-11T12:11:42.705Z,100897.58
2018-07-11T12:14:10.320Z,100894.50
2018-07-11T12:16:36.969Z,100892.31
2018-07-11T12:19:04.402Z,100895.68
2018-07-11T12:21:31.139Z,100891.47
2018-07-11T12:23:58.578Z,100891.47
2018-07-11T12:26:25.365Z,100893.30
2018-07-11T12:28:52.956Z,100895.11
2018-07-11T12:31:19.619Z,100887.48
2018-07-11T12:33:46.275Z,100886.31
2018-07-11T12:36:13.232Z,100893.78
2018-07-11T12:38:39.886Z,100884.34
2018-07-11T12:41:06.576Z,100879.41
2018-07-11T12:43:34.020Z,100880.73
2018-07-11T12:46:00.670Z,100873.88
2018-07-11T12:49:30.561Z,100876.53
2018-07-11T12:51:58.097Z,100874.63
2018-07-11T12:54:25.737Z,100866.75
2018-07-11T12:56:53.479Z,100871.91
2018-07-11T12:59:21.812Z,100868.15
2018-07-11T13:01:49.396Z,100863.67
2018-07-11T13:04:17.030Z,100860.03
2018-07-11T13:06:43.804Z,100853.05
2018-07-11T13:09:10.468Z,100852.44
2018-07-11T13:11:37.124Z,100851.95
2018-07-11T13:14:04.855Z,100845.80
2018-07-11T13:16:32.764Z,100843.48
2018-07-11T13:18:59.423Z,100842.16
2018-07-11T13:21:26.092Z,100845.99
2018-07-11T13:23:53.666Z,100843.98
2018-07-11T13:26:20.316Z,100850.13
2018-07-11T13:28:46.981Z,100847.96
2018-07-11T13:31:13.644Z,100844.94
2018-07-11T13:33:40.497Z,100845.92
2018-07-11T13:36:07.169Z,100844.94
2018-07-11T13:38:34.952Z,100839.28
2018-07-11T13:41:01.633Z,100844.09
2018-07-11T13:43:28.288Z,100837.68
2018-07-11T13:45:54.941Z,100839.63
2018-07-11T13:48:21.600Z,100837.34
2018-07-11T13:50:48.252Z,100836.51
2018-07-11T13:53:14.912Z,100833.48
2018-07-11T13:55:41.581Z,100827.33
2018-07-11T13:58:08.721Z,100824.56
2018-07-11T14:00:35.396Z,100817.92
2018-07-11T14:03:04.160Z,100823.91
2018-07-11T14:05:32.126Z,100823.02
2018-07-11T14:07:59.672Z,100827.33
2018-07-11T14:10:27.304Z,100825.17
2018-07-11T14:12:54.997Z,100819.03
2018-07-11T14:15:21.664Z,100812.23
2018-07-11T14:17:49.295Z,100809.95
2018-07-11T14:20:16.615Z,100799.95
2018-07-11T14:22:45.093Z,100805.97
2018-07-11T14:25:11.753Z,100802.11
2018-07-11T14:27:40.321Z,100793.37
2018-07-11T14:30:08.265Z,100799.67
2018-07-11T14:32:34.988Z,100802.82
2018-07-11T14:35:03.898Z,100798.28
2018-07-11T14:37:30.604Z,100798.96
2018-07-11T14:39:58.200Z,100800.66
2018-07-11T14:42:24.865Z,100798.34
2018-07-11T14:44:52.508Z,100802.82
2018-07-11T14:47:24.816Z,100803.44
2018-07-11T14:49:51.473Z,100802.27
2018-07-11T14:52:18.136Z,100798.28
2018-07-11T14:54:45.716Z,100800.29
2018-07-11T14:57:13.237Z,100802.11
2018-07-11T14:59:40.751Z,100808.62
2018-07-11T15:02:08.381Z,100805.26
2018-07-11T15:04:35.986Z,100813.03
2018-07-11T15:07:03.608Z,100807.57
2018-07-11T15:09:31.221Z,100811.28
2018-07-11T15:11:59.361Z,100817.77
2018-07-11T15:14:26.903Z,100813.78
2018-07-11T15:16:54.555Z,100806.09
2018-07-11T15:19:22.244Z,100806.09
2018-07-11T15:21:49.708Z,100801.77
2018-07-11T15:24:17.160Z,100802.82
2018-07-11T15:26:44.905Z,100803.09
2018-07-11T15:29:12.480Z,100803.78
2018-07-11T15:31:40.066Z,100807.42
2018-07-11T15:34:06.745Z,100808.91
2018-07-11T15:36:34.069Z,100808.75
2018-07-11T15:39:02.743Z,100804.58
2018-07-11T15:41:30.384Z,100805.91
2018-07-11T15:43:57.908Z,100807.91
2018-07-11T15:46:24.730Z,100805.26
2018-07-11T15:48:52.233Z,100806.52
2018-07-11T15:51:18.916Z,100806.73
2018-07-11T15:53:46.381Z,100803.44
2018-07-11T15:56:13.361Z,100800.66
2018-07-11T15:58:44.567Z,100798.12
2018-07-11T16:01:10.123Z,100794.91
2018-07-11T16:03:44.348Z,100800.29
2018-07-11T16:06:12.036Z,100794.57
2018-07-11T16:08:41.768Z,100791.83
2018-07-11T16:11:09.383Z,100797.52
2018-07-11T16:13:36.992Z,100792.48
2018-07-11T16:16:04.806Z,100796.63
2018-07-11T16:18:33.998Z,100791.30
2018-07-11T16:21:00.639Z,100792.20
2018-07-11T16:23:27.344Z,100800.22
2018-07-11T16:25:54.973Z,100788.67
2018-07-11T16:28:22.686Z,100790.86
2018-07-11T16:30:50.426Z,100794.22
2018-07-11T16:33:17.088Z,100795.14
2018-07-11T16:35:43.746Z,100796.97
2018-07-11T16:38:10.401Z,100802.67
2018-07-11T16:40:37.083Z,100801.23
2018-07-11T16:43:04.453Z,100806.87
2018-07-11T16:45:33.285Z,100810.70
2018-07-11T16:48:00.373Z,100811.20
2018-07-11T16:50:27.236Z,100808.36
2018-07-11T16:52:54.351Z,100806.87
2018-07-11T16:55:21.040Z,100805.55
2018-07-11T16:57:49.851Z,100807.87
2018-07-11T17:00:26.141Z,100810.53
2018-07-11T17:02:57.040Z,100810.53
2018-07-11T17:05:23.727Z,100811.86
2018-07-11T17:07:50.740Z,100812.84
2018-07-11T17:10:19.221Z,100820.81
2018-07-11T17:12:50.609Z,100818.16
2018-07-11T17:15:18.902Z,100816.62
2018-07-11T17:17:46.617Z,100816.77
2018-07-11T17:20:14.389Z,100815.08
2018-07-11T17:22:58.659Z,100809.42
2018-07-11T17:25:28.341Z,100810.60
2018-07-11T17:27:59.490Z,100814.27
2018-07-11T17:30:29.552Z,100812.17
2018-07-11T17:32:56.230Z,100813.72
2018-07-11T17:35:22.887Z,100813.34
2018-07-11T17:37:49.548Z,100814.34
2018-07-11T17:40:16.361Z,100819.98
2018-07-11T17:42:43.700Z,100817.70
2018-07-11T17:45:13.729Z,100817.83
2018-07-11T17:47:46.020Z,100814.98
2018-07-11T17:50:12.668Z,100815.11
2018-07-11T17:52:45.022Z,100815.27
2018-07-11T17:55:14.845Z,100817.92
2018-07-11T17:57:46.672Z,100824.07
2018-07-11T18:00:21.529Z,100823.89
2018-07-11T18:02:53.837Z,100824.66
2018-07-11T18:05:26.992Z,100820.80
2018-07-11T18:07:54.199Z,100816.97
2018-07-11T18:10:53.693Z,100825.49
2018-07-11T18:13:27.772Z,100827.73
2018-07-11T18:15:57.372Z,100836.05
2018-07-11T18:18:33.613Z,100827.74
2018-07-11T18:21:09.773Z,100826.91
2018-07-11T18:24:17.912Z,100834.66
2018-07-11T18:27:21.469Z,100826.64
2018-07-11T18:29:50.097Z,100833.14
2018-07-11T18:32:19.895Z,100827.45
2018-07-11T18:34:52.288Z,100841.55
2018-07-11T18:37:58.382Z,100840.22
2018-07-11T18:40:42.870Z,100842.42
2018-07-11T18:43:15.137Z,100855.42
2018-07-11T18:45:47.533Z,100849.41
2018-07-11T18:48:35.936Z,100851.42
2018-07-11T18:51:06.227Z,100848.52
2018-07-11T18:53:42.489Z,100858.41
2018-07-11T18:56:14.520Z,100854.47
2018-07-11T18:58:43.621Z,100865.66
2018-07-11T19:01:16.641Z,100860.09
2018-07-11T19:03:44.024Z,100859.19
2018-07-11T19:06:14.291Z,100865.62
2018-07-11T19:08:51.100Z,100875.91
2018-07-11T19:11:21.734Z,100894.67
2018-07-11T19:13:51.950Z,100899.98
2018-07-11T19:16:21.546Z,100899.30
2018-07-11T19:19:19.953Z,100903.94
2018-07-11T19:21:53.302Z,100898.83
2018-07-11T19:24:20.901Z,100894.91
2018-07-11T19:26:56.242Z,100895.67
2018-07-11T19:29:28.660Z,100892.80
2018-07-11T19:32:05.939Z,100897.77
2018-07-11T19:36:45.476Z,100892.11
2018-07-11T19:39:19.198Z,100891.75
2018-07-11T19:41:49.685Z,100901.75
2018-07-11T19:44:24.966Z,100903.57
2018-07-11T19:48:59.754Z,100901.27
2018-07-11T19:51:30.018Z,100913.58
2018-07-11T19:54:08.679Z,100915.29
2018-07-11T19:56:46.143Z,100901.98
2018-07-11T19:59:13.413Z,100903.03
2018-07-11T20:01:40.099Z,100919.33
2018-07-11T20:04:06.769Z,100925.80
2018-07-11T20:06:34.010Z,100928.81
2018-07-11T20:09:00.728Z,100932.73
2018-07-11T20:11:27.425Z,100931.10
2018-07-11T20:13:54.481Z,100934.19
2018-07-11T20:16:21.745Z,100932.81
2018-07-11T20:18:48.435Z,100923.84
2018-07-11T20:21:16.135Z,100916.48
2018-07-11T20:23:42.953Z,100919.52
2018-07-11T20:26:10.488Z,100924.03
2018-07-11T20:28:37.206Z,100919.52
2018-07-11T20:31:04.248Z,100916.64
2018-07-11T20:33:30.931Z,100923.20
2018-07-11T20:35:57.629Z,100920.36
2018-07-11T20:38:24.890Z,100925.33
2018-07-11T20:40:51.629Z,100929.02
2018-07-11T20:43:19.328Z,100920.50
2018-07-11T20:45:46.215Z,100923.22
2018-07-11T20:48:19.385Z,100921.27
2018-07-11T20:50:46.087Z,100923.56
2018-07-11T20:53:12.782Z,100921.22
2018-07-11T20:55:39.484Z,100922.47
2018-07-11T20:58:11.957Z,100921.55
2018-07-11T21:00:44.309Z,100920.80
2018-07-11T21:03:16.818Z,100922.67
2018-07-11T21:05:48.966Z,100922.48
2018-07-11T21:08:20.130Z,100933.36
2018-07-11T21:10:54.221Z,100941.76
2018-07-11T21:13:27.169Z,100948.40
2018-07-11T21:18:04.181Z,100955.53
2018-07-11T21:20:35.253Z,100961.14
2018-07-11T21:23:04.749Z,100970.80
2018-07-11T21:25:31.447Z,100968.02
2018-07-11T21:28:00.194Z,100971.81
2018-07-11T21:30:26.913Z,100951.47
2018-07-11T21:32:54.569Z,100949.95
2018-07-11T21:35:21.249Z,100944.98
2018-07-11T21:37:48.130Z,100945.05
2018-07-11T21:40:14.780Z,100939.17
2018-07-11T21:42:41.465Z,100941.64
2018-07-11T21:45:08.113Z,100938.48
2018-07-11T21:47:35.652Z,100939.94
2018-07-11T21:50:04.707Z,100942.09
2018-07-11T21:52:33.513Z,100936.84
2018-07-11T21:55:01.274Z,100937.28
2018-07-11T21:57:28.782Z,100925.70
2018-07-11T21:59:56.417Z,100920.55
2018-07-11T22:02:23.130Z,100920.02
2018-07-11T22:04:50.685Z,100913.38
2018-07-11T22:07:18.317Z,100909.59
2018-07-11T22:09:46.054Z,100903.44
2018-07-11T22:12:13.626Z,100909.93
2018-07-11T22:14:40.336Z,100910.61
2018-07-11T22:17:12.645Z,100905.45
2018-07-11T22:19:39.014Z,100904.77
2018-07-11T22:22:05.225Z,100901.08
2018-07-11T22:24:31.428Z,100899.45
2018-07-11T22:26:57.605Z,100899.08
2018-07-11T22:29:23.817Z,100889.33
2018-07-11T22:31:50.966Z,100897.63
2018-07-11T22:34:17.177Z,100897.56
2018-07-11T22:36:44.345Z,100897.00
2018-07-11T22:39:10.557Z,100894.34
2018-07-11T22:41:36.763Z,100891.96
2018-07-11T22:44:04.294Z,100879.73
2018-07-11T22:46:30.496Z,100880.72
2018-07-11T22:48:56.681Z,100881.63
2018-07-11T22:51:22.872Z,100882.17
2018-07-11T22:53:49.057Z,100875.07
2018-07-11T22:56:15.240Z,100875.14
2018-07-11T22:58:42.838Z,100875.53
2018-07-11T23:01:10.093Z,100870.66
2018-07-11T23:03:37.105Z,100868.34
2018-07-11T23:06:07.113Z,100860.53
2018-07-11T23:08:33.977Z,100860.80
2018-07-11T23:11:00.186Z,100864.64
2018-07-11T23:13:27.269Z,100860.89
2018-07-11T23:15:54.280Z,100867.22
2018-07-11T23:18:20.465Z,100866.66
2018-07-11T23:20:47.610Z,100864.99
2018-07-11T23:23:14.984Z,100864.88
2018-07-11T23:25:42.158Z,100862.27
2018-07-11T23:28:08.328Z,100855.20
2018-07-11T23:30:35.069Z,100862.48
2018-07-11T23:33:01.321Z,100852.12
2018-07-11T23:35:28.393Z,100850.80
2018-07-11T23:37:55.383Z,100849.62
2018-07-11T23:40:21.584Z,100845.97
2018-07-11T23:42:47.787Z,100847.71
2018-07-11T23:45:13.985Z,100845.56
2018-07-11T23:47:40.166Z,100849.62
2018-07-11T23:50:06.358Z,100848.02
2018-07-11T23:52:33.221Z,100847.61
2018-07-11T23:54:59.413Z,100841.80
2018-07-11T23:57:25.592Z,100845.91
2018-07-11T23:59:51.790Z,100840.32
